Time,TemperatureF,DewpointF,PressureIn,WindDirection,WindDirectionDegrees,WindSpeedMPH,WindSpeedGustMPH,Humidity,HourlyPrecipIn,Conditions,Clouds,dailyrainin,SolarRadiationWatts/m^2,SoftwareType,DateUTC
2013-04-17 00:03:00,59.0,58.0,-100.00,SSW,198,7.0,12.0,96,0.00,,,0.00,0.000000,,2013-04-17 04:03:00,
2013-04-17 00:33:00,60.0,59.0,-100.00,WSW,244,7.0,14.0,97,0.02,,,0.02,0.000000,,2013-04-17 04:33:00,
2013-04-17 00:43:00,60.0,59.0,-100.00,WSW,244,7.0,14.0,97,0.02,,,0.02,0.000000,,2013-04-17 04:43:00,
2013-04-17 00:53:00,60.0,59.0,-100.00,WSW,244,7.0,14.0,97,0.02,,,0.02,0.000000,,2013-04-17 04:53:00,
2013-04-17 01:03:00,60.0,59.0,-100.00,WSW,244,7.0,14.0,97,0.02,,,0.02,0.000000,,2013-04-17 05:03:00,
2013-04-17 01:32:00,57.0,57.0,-100.00,WSW,253,4.0,14.0,100,0.09,,,0.11,0.000000,,2013-04-17 05:32:00,
2013-04-17 01:43:00,57.0,57.0,-100.00,WSW,253,4.0,14.0,100,0.09,,,0.11,0.000000,,2013-04-17 05:43:00,
2013-04-17 01:52:00,57.0,57.0,-100.00,WSW,253,4.0,14.0,100,0.09,,,0.11,0.000000,,2013-04-17 05:52:00,
2013-04-17 02:02:00,57.0,57.0,-100.00,WSW,253,4.0,14.0,100,0.09,,,0.11,0.000000,,2013-04-17 06:02:00,
2013-04-17 02:32:00,56.0,56.0,-100.00,ENE,69,1.0,5.0,100,0.04,,,0.15,0.000000,,2013-04-17 06:32:00,
2013-04-17 02:42:00,56.0,56.0,-100.00,ENE,69,1.0,5.0,100,0.04,,,0.15,0.000000,,2013-04-17 06:42:00,
2013-04-17 02:52:00,56.0,56.0,-100.00,ENE,69,1.0,5.0,100,0.04,,,0.15,0.000000,,2013-04-17 06:52:00,
2013-04-17 03:02:00,56.0,56.0,-100.00,ENE,69,1.0,5.0,100,0.04,,,0.15,0.000000,,2013-04-17 07:02:00,
2013-04-17 03:32:00,57.0,57.0,-100.00,NE,35,5.0,8.0,100,0.03,,,0.18,0.000000,,2013-04-17 07:32:00,
2013-04-17 03:42:00,57.0,57.0,-100.00,NE,35,5.0,8.0,100,0.03,,,0.18,0.000000,,2013-04-17 07:42:00,
2013-04-17 03:52:00,57.0,57.0,-100.00,NE,35,5.0,8.0,100,0.03,,,0.18,0.000000,,2013-04-17 07:52:00,
2013-04-17 04:02:00,57.0,57.0,-100.00,NE,35,5.0,8.0,100,0.03,,,0.18,0.000000,,2013-04-17 08:02:00,
2013-04-17 04:33:00,57.0,57.0,-100.00,NNW,336,2.0,9.0,100,0.00,,,0.18,0.000000,,2013-04-17 08:33:00,
2013-04-17 04:42:00,57.0,57.0,-100.00,NNW,336,2.0,9.0,100,0.00,,,0.18,0.000000,,2013-04-17 08:42:00,
2013-04-17 04:52:00,57.0,57.0,-100.00,NNW,336,2.0,9.0,100,0.00,,,0.18,0.000000,,2013-04-17 08:52:00,
2013-04-17 05:02:00,57.0,57.0,-100.00,NNW,336,2.0,9.0,100,0.00,,,0.18,0.000000,,2013-04-17 09:02:00,
2013-04-17 05:33:00,56.0,56.0,-100.00,NNE,16,6.0,12.0,100,0.00,,,0.18,0.000000,,2013-04-17 09:33:00,
2013-04-17 05:42:00,56.0,56.0,-100.00,NNE,16,6.0,12.0,100,0.00,,,0.18,0.000000,,2013-04-17 09:42:00,
2013-04-17 05:53:00,56.0,56.0,-100.00,NNE,16,6.0,12.0,100,0.00,,,0.18,0.000000,,2013-04-17 09:53:00,
2013-04-17 06:03:00,56.0,56.0,-100.00,NNE,16,6.0,12.0,100,0.00,,,0.18,0.000000,,2013-04-17 10:03:00,
2013-04-17 06:33:00,52.0,52.0,-100.00,NE,51,10.0,16.0,100,0.00,,,0.18,0.000000,,2013-04-17 10:33:00,
2013-04-17 06:43:00,52.0,52.0,-100.00,NE,51,10.0,16.0,100,0.00,,,0.18,0.000000,,2013-04-17 10:43:00,
2013-04-17 06:53:00,52.0,52.0,-100.00,NE,51,10.0,16.0,100,0.00,,,0.18,0.000000,,2013-04-17 10:53:00,
2013-04-17 07:02:00,52.0,52.0,-100.00,NE,51,10.0,16.0,100,0.00,,,0.18,0.000000,,2013-04-17 11:02:00,
2013-04-17 07:32:00,49.0,49.0,-100.00,NE,52,10.0,14.0,100,0.00,,,0.18,5.000000,,2013-04-17 11:32:00,
2013-04-17 07:42:00,49.0,49.0,-100.00,NE,52,10.0,14.0,100,0.00,,,0.18,5.000000,,2013-04-17 11:42:00,
2013-04-17 07:52:00,49.0,49.0,-100.00,NE,52,10.0,14.0,100,0.00,,,0.18,5.000000,,2013-04-17 11:52:00,
2013-04-17 08:03:00,49.0,49.0,-100.00,NE,52,10.0,14.0,100,0.00,,,0.18,5.000000,,2013-04-17 12:03:00,
2013-04-17 08:32:00,48.0,48.0,-100.00,NE,56,10.0,17.0,100,0.00,,,0.18,26.000000,,2013-04-17 12:32:00,
2013-04-17 08:42:00,48.0,48.0,-100.00,NE,56,10.0,17.0,100,0.00,,,0.18,26.000000,,2013-04-17 12:42:00,
2013-04-17 08:52:00,48.0,48.0,-100.00,NE,56,10.0,17.0,100,0.00,,,0.18,26.000000,,2013-04-17 12:52:00,
2013-04-17 09:02:00,48.0,48.0,-100.00,NE,56,10.0,17.0,100,0.00,,,0.18,26.000000,,2013-04-17 13:02:00,
2013-04-17 09:32:00,47.0,47.0,-100.00,NE,44,9.0,16.0,100,0.00,,,0.18,84.000000,,2013-04-17 13:32:00,
2013-04-17 09:42:00,47.0,47.0,-100.00,NE,44,9.0,16.0,100,0.00,,,0.18,84.000000,,2013-04-17 13:42:00,
2013-04-17 09:52:00,47.0,47.0,-100.00,NE,44,9.0,16.0,100,0.00,,,0.18,84.000000,,2013-04-17 13:52:00,
2013-04-17 10:02:00,47.0,47.0,-100.00,NE,44,9.0,16.0,100,0.00,,,0.18,84.000000,,2013-04-17 14:02:00,
2013-04-17 10:32:00,47.0,46.0,-100.00,NE,41,8.0,17.0,97,0.00,,,0.18,133.000000,,2013-04-17 14:32:00,
2013-04-17 10:43:00,47.0,46.0,-100.00,NE,41,8.0,17.0,97,0.00,,,0.18,133.000000,,2013-04-17 14:43:00,
2013-04-17 10:52:00,47.0,46.0,-100.00,NE,41,8.0,17.0,97,0.00,,,0.18,133.000000,,2013-04-17 14:52:00,
2013-04-17 11:02:00,47.0,46.0,-100.00,NE,41,8.0,17.0,97,0.00,,,0.18,133.000000,,2013-04-17 15:02:00,
2013-04-17 11:33:00,50.0,42.0,-100.00,NNE,30,7.0,14.0,74,0.00,,,0.18,256.000000,,2013-04-17 15:33:00,
2013-04-17 11:43:00,50.0,42.0,-100.00,NNE,30,7.0,14.0,74,0.00,,,0.18,256.000000,,2013-04-17 15:43:00,
2013-04-17 11:53:00,50.0,42.0,-100.00,NNE,30,7.0,14.0,74,0.00,,,0.18,256.000000,,2013-04-17 15:53:00,
2013-04-17 12:03:00,50.0,42.0,-100.00,NNE,30,7.0,14.0,74,0.00,,,0.18,256.000000,,2013-04-17 16:03:00,
2013-04-17 12:32:00,56.0,41.0,-100.00,NNE,30,5.0,11.0,58,0.00,,,0.18,666.000000,,2013-04-17 16:32:00,
2013-04-17 12:42:00,56.0,41.0,-100.00,NNE,30,5.0,11.0,58,0.00,,,0.18,666.000000,,2013-04-17 16:42:00,
2013-04-17 12:52:00,56.0,41.0,-100.00,NNE,30,5.0,11.0,58,0.00,,,0.18,666.000000,,2013-04-17 16:52:00,
2013-04-17 13:02:00,56.0,41.0,-100.00,NNE,30,5.0,11.0,58,0.00,,,0.18,666.000000,,2013-04-17 17:02:00,
2013-04-17 13:33:00,59.0,39.0,-100.00,NNE,23,6.0,13.0,48,0.00,,,0.18,844.000000,,2013-04-17 17:33:00,
2013-04-17 13:42:00,59.0,39.0,-100.00,NNE,23,6.0,13.0,48,0.00,,,0.18,844.000000,,2013-04-17 17:42:00,
2013-04-17 13:52:00,59.0,39.0,-100.00,NNE,23,6.0,13.0,48,0.00,,,0.18,844.000000,,2013-04-17 17:52:00,
2013-04-17 14:02:00,59.0,39.0,-100.00,NNE,23,6.0,13.0,48,0.00,,,0.18,844.000000,,2013-04-17 18:02:00,
2013-04-17 14:33:00,61.0,36.0,-100.00,NNE,22,4.0,12.0,39,0.00,,,0.18,778.000000,,2013-04-17 18:33:00,
2013-04-17 14:42:00,61.0,36.0,-100.00,NNE,22,4.0,12.0,39,0.00,,,0.18,778.000000,,2013-04-17 18:42:00,
2013-04-17 14:52:00,61.0,36.0,-100.00,NNE,22,4.0,12.0,39,0.00,,,0.18,778.000000,,2013-04-17 18:52:00,
2013-04-17 15:02:00,61.0,36.0,-100.00,NNE,22,4.0,12.0,39,0.00,,,0.18,778.000000,,2013-04-17 19:02:00,
2013-04-17 15:32:00,63.0,36.0,-100.00,NNE,21,6.0,14.0,36,0.00,,,0.18,755.000000,,2013-04-17 19:32:00,
2013-04-17 15:42:00,63.0,36.0,-100.00,NNE,21,6.0,14.0,36,0.00,,,0.18,755.000000,,2013-04-17 19:42:00,
2013-04-17 15:52:00,63.0,36.0,-100.00,NNE,21,6.0,14.0,36,0.00,,,0.18,755.000000,,2013-04-17 19:52:00,
2013-04-17 16:03:00,63.0,36.0,-100.00,NNE,21,6.0,14.0,36,0.00,,,0.18,755.000000,,2013-04-17 20:03:00,
2013-04-17 16:33:00,63.0,32.0,-100.00,NNE,31,7.0,15.0,31,0.00,,,0.18,654.000000,,2013-04-17 20:33:00,
2013-04-17 16:42:00,63.0,32.0,-100.00,NNE,31,7.0,15.0,31,0.00,,,0.18,654.000000,,2013-04-17 20:42:00,
2013-04-17 16:52:00,63.0,32.0,-100.00,NNE,31,7.0,15.0,31,0.00,,,0.18,654.000000,,2013-04-17 20:52:00,
2013-04-17 17:03:00,63.0,32.0,-100.00,NNE,31,7.0,15.0,31,0.00,,,0.18,654.000000,,2013-04-17 21:03:00,
2013-04-17 17:33:00,64.0,31.0,-100.00,NE,46,6.0,14.0,29,0.00,,,0.18,485.000000,,2013-04-17 21:33:00,
2013-04-17 17:43:00,64.0,31.0,-100.00,NE,46,6.0,14.0,29,0.00,,,0.18,485.000000,,2013-04-17 21:43:00,
2013-04-17 17:53:00,64.0,31.0,-100.00,NE,46,6.0,14.0,29,0.00,,,0.18,485.000000,,2013-04-17 21:53:00,
2013-04-17 18:02:00,64.0,31.0,-100.00,NE,46,6.0,14.0,29,0.00,,,0.18,485.000000,,2013-04-17 22:02:00,
2013-04-17 18:33:00,63.0,31.0,-100.00,NNE,29,6.0,10.0,30,0.00,,,0.18,278.000000,,2013-04-17 22:33:00,
2013-04-17 18:43:00,63.0,31.0,-100.00,NNE,29,6.0,10.0,30,0.00,,,0.18,278.000000,,2013-04-17 22:43:00,
2013-04-17 18:53:00,63.0,31.0,-100.00,NNE,29,6.0,10.0,30,0.00,,,0.18,278.000000,,2013-04-17 22:53:00,
2013-04-17 19:02:00,63.0,31.0,-100.00,NNE,29,6.0,10.0,30,0.00,,,0.18,278.000000,,2013-04-17 23:02:00,
2013-04-17 19:32:00,62.0,30.0,-100.00,NE,48,5.0,10.0,30,0.00,,,0.18,139.000000,,2013-04-17 23:32:00,
2013-04-17 19:42:00,62.0,30.0,-100.00,NE,48,5.0,10.0,30,0.00,,,0.18,139.000000,,2013-04-17 23:42:00,
2013-04-17 19:52:00,62.0,30.0,-100.00,NE,48,5.0,10.0,30,0.00,,,0.18,139.000000,,2013-04-17 23:52:00,
2013-04-17 20:02:00,62.0,30.0,-100.00,NE,48,5.0,10.0,30,0.00,,,0.18,139.000000,,2013-04-18 00:02:00,
2013-04-17 20:32:00,57.0,30.0,-100.00,East,94,4.0,7.0,35,0.00,,,0.18,13.000000,,2013-04-18 00:32:00,
2013-04-17 20:43:00,57.0,30.0,-100.00,East,94,4.0,7.0,35,0.00,,,0.18,13.000000,,2013-04-18 00:43:00,
2013-04-17 20:52:00,57.0,30.0,-100.00,East,94,4.0,7.0,35,0.00,,,0.18,13.000000,,2013-04-18 00:52:00,
2013-04-17 21:02:00,57.0,30.0,-100.00,East,94,4.0,7.0,35,0.00,,,0.18,13.000000,,2013-04-18 01:02:00,
2013-04-17 21:32:00,56.0,31.0,-100.00,ESE,120,5.0,10.0,38,0.00,,,0.18,0.000000,,2013-04-18 01:32:00,
2013-04-17 21:42:00,56.0,31.0,-100.00,ESE,120,5.0,10.0,38,0.00,,,0.18,0.000000,,2013-04-18 01:42:00,
2013-04-17 21:52:00,56.0,31.0,-100.00,ESE,120,5.0,10.0,38,0.00,,,0.18,0.000000,,2013-04-18 01:52:00,
2013-04-17 22:02:00,56.0,31.0,-100.00,ESE,120,5.0,10.0,38,0.00,,,0.18,0.000000,,2013-04-18 02:02:00,
2013-04-17 22:32:00,56.0,36.0,-100.00,SE,130,4.0,8.0,47,0.00,,,0.18,0.000000,,2013-04-18 02:32:00,
2013-04-17 22:42:00,56.0,36.0,-100.00,SE,130,4.0,8.0,47,0.00,,,0.18,0.000000,,2013-04-18 02:42:00,
2013-04-17 22:52:00,56.0,36.0,-100.00,SE,130,4.0,8.0,47,0.00,,,0.18,0.000000,,2013-04-18 02:52:00,
2013-04-17 23:02:00,56.0,36.0,-100.00,SE,130,4.0,8.0,47,0.00,,,0.18,0.000000,,2013-04-18 03:02:00,
2013-04-17 23:33:00,55.0,32.0,-100.00,ESE,112,6.0,9.0,42,0.00,,,0.18,0.000000,,2013-04-18 03:33:00,
2013-04-17 23:43:00,55.0,32.0,-100.00,ESE,112,6.0,9.0,42,0.00,,,0.18,0.000000,,2013-04-18 03:43:00,
2013-04-17 23:53:00,55.0,32.0,-100.00,ESE,112,6.0,9.0,42,0.00,,,0.18,0.000000,,2013-04-18 03:53:00,